createdAt,value
2018-07-27T00:00:31.696Z,3.40
2018-07-27T00:01:31.702Z,3.50
2018-07-27T00:02:31.727Z,3.60
2018-07-27T00:03:31.746Z,3.70
2018-07-27T00:04:31.774Z,3.80
2018-07-27T00:05:31.786Z,3.40
2018-07-27T00:06:31.814Z,3.50
2018-07-27T00:07:31.837Z,3.80
2018-07-27T00:08:31.865Z,3.60
2018-07-27T00:09:31.879Z,3.50
2018-07-27T00:10:31.904Z,3.40
2018-07-27T00:11:31.924Z,3.60
2018-07-27T00:12:31.934Z,3.40
2018-07-27T00:13:31.967Z,3.40
2018-07-27T00:14:31.994Z,3.60
2018-07-27T00:15:32.015Z,3.60
2018-07-27T00:16:32.037Z,3.30
2018-07-27T00:17:32.055Z,3.50
2018-07-27T00:18:32.080Z,3.60
2018-07-27T00:19:32.088Z,3.70
2018-07-27T00:20:32.118Z,3.60
2018-07-27T00:21:32.138Z,3.50
2018-07-27T00:22:32.159Z,3.80
2018-07-27T00:23:32.192Z,3.40
2018-07-27T00:24:32.203Z,3.60
2018-07-27T00:25:32.223Z,3.40
2018-07-27T00:26:32.262Z,3.40
2018-07-27T00:27:32.267Z,3.60
2018-07-27T00:28:32.289Z,3.60
2018-07-27T00:29:32.367Z,3.50
2018-07-27T00:30:32.334Z,3.50
2018-07-27T00:31:32.357Z,3.60
2018-07-27T00:32:32.378Z,3.70
2018-07-27T00:33:32.398Z,3.60
2018-07-27T00:34:32.415Z,3.60
2018-07-27T00:35:32.441Z,3.60
2018-07-27T00:36:32.470Z,3.60
2018-07-27T00:37:32.492Z,3.60
2018-07-27T00:38:32.514Z,3.40
2018-07-27T00:39:32.525Z,3.60
2018-07-27T00:40:32.550Z,3.20
2018-07-27T00:41:32.570Z,3.70
2018-07-27T00:42:32.590Z,3.70
2018-07-27T00:43:32.608Z,3.50
2018-07-27T00:44:32.641Z,3.60
2018-07-27T00:45:32.669Z,3.50
2018-07-27T00:46:32.676Z,3.50
2018-07-27T00:47:32.706Z,3.90
2018-07-27T00:48:32.738Z,3.70
2018-07-27T00:49:32.741Z,3.50
2018-07-27T00:50:32.774Z,3.60
2018-07-27T00:51:32.794Z,3.80
2018-07-27T00:52:32.811Z,3.60
2018-07-27T00:53:32.826Z,3.40
2018-07-27T00:54:32.860Z,3.40
2018-07-27T00:55:32.878Z,3.70
2018-07-27T00:56:32.896Z,3.80
2018-07-27T00:57:32.916Z,3.60
2018-07-27T00:58:32.935Z,3.60
2018-07-27T00:59:32.960Z,3.60
2018-07-27T01:00:32.984Z,3.70
2018-07-27T01:01:33.001Z,3.70
2018-07-27T01:02:33.027Z,3.70
2018-07-27T01:03:33.049Z,3.50
2018-07-27T01:04:33.069Z,3.70
2018-07-27T01:05:33.089Z,3.40
2018-07-27T01:06:33.117Z,3.90
2018-07-27T01:07:33.128Z,3.50
2018-07-27T01:08:33.153Z,3.70
2018-07-27T01:09:33.179Z,3.60
2018-07-27T01:10:33.198Z,3.40
2018-07-27T01:11:33.216Z,3.60
2018-07-27T01:12:33.238Z,3.70
2018-07-27T01:13:33.253Z,3.40
2018-07-27T01:14:33.280Z,3.50
2018-07-27T01:15:33.363Z,3.40
2018-07-27T01:16:33.334Z,3.60
2018-07-27T01:17:33.347Z,3.70
2018-07-27T01:18:33.367Z,3.70
2018-07-27T01:19:33.387Z,3.70
2018-07-27T01:20:33.410Z,3.20
2018-07-27T01:21:33.433Z,3.50
2018-07-27T01:22:33.455Z,3.50
2018-07-27T01:23:33.475Z,3.50
2018-07-27T01:24:33.502Z,3.50
2018-07-27T01:25:33.530Z,3.70
2018-07-27T01:26:33.540Z,3.50
2018-07-27T01:27:33.572Z,3.50
2018-07-27T01:28:33.581Z,3.70
2018-07-27T01:29:33.608Z,3.70
2018-07-27T01:30:33.631Z,3.80
2018-07-27T01:31:33.661Z,3.70
2018-07-27T01:32:33.666Z,3.40
2018-07-27T01:33:33.691Z,3.50
2018-07-27T01:34:33.709Z,3.50
2018-07-27T01:35:33.737Z,3.60
2018-07-27T01:36:33.758Z,3.60
2018-07-27T01:37:33.779Z,3.70
2018-07-27T01:38:33.794Z,3.60
2018-07-27T01:39:33.814Z,3.70
2018-07-27T01:40:33.829Z,3.60
2018-07-27T01:41:33.863Z,3.70
2018-07-27T01:42:33.876Z,3.50
2018-07-27T01:43:33.912Z,3.90
2018-07-27T01:44:33.918Z,3.60
2018-07-27T01:45:33.955Z,3.70
2018-07-27T01:46:33.969Z,3.80
2018-07-27T01:47:33.986Z,3.70
2018-07-27T01:48:34.086Z,3.80
2018-07-27T01:49:34.031Z,3.20
2018-07-27T01:50:34.049Z,3.80
2018-07-27T01:51:34.071Z,3.60
2018-07-27T01:52:34.092Z,3.60
2018-07-27T01:53:34.115Z,3.70
2018-07-27T01:54:34.138Z,3.90
2018-07-27T01:55:34.164Z,3.70
2018-07-27T01:56:34.184Z,3.50
2018-07-27T01:57:34.211Z,3.50
2018-07-27T01:58:34.272Z,3.40
2018-07-27T01:59:34.245Z,3.80
2018-07-27T02:00:34.282Z,3.60
2018-07-27T02:01:34.287Z,3.60
2018-07-27T02:02:34.313Z,3.80
2018-07-27T02:03:34.342Z,3.70
2018-07-27T02:04:34.351Z,3.70
2018-07-27T02:05:34.388Z,3.70
2018-07-27T02:06:34.399Z,3.50
2018-07-27T02:07:34.424Z,3.80
2018-07-27T02:08:34.434Z,3.70
2018-07-27T02:09:34.458Z,3.80
2018-07-27T02:10:34.504Z,3.50
2018-07-27T02:11:34.516Z,3.70
2018-07-27T02:12:34.518Z,3.90
2018-07-27T02:13:34.544Z,3.70
2018-07-27T02:14:34.576Z,3.90
2018-07-27T02:15:34.587Z,3.60
2018-07-27T02:16:34.605Z,3.60
2018-07-27T02:17:34.631Z,3.40
2018-07-27T02:18:34.654Z,3.70
2018-07-27T02:19:34.671Z,3.60
2018-07-27T02:20:34.693Z,3.60
2018-07-27T02:21:34.716Z,3.80
2018-07-27T02:22:34.741Z,3.70
2018-07-27T02:23:34.793Z,4.00
2018-07-27T02:24:34.780Z,3.80
2018-07-27T02:25:34.806Z,3.60
2018-07-27T02:26:34.829Z,3.80
2018-07-27T02:27:34.844Z,3.70
2018-07-27T02:28:34.860Z,3.70
2018-07-27T02:29:34.887Z,3.80
2018-07-27T02:30:34.908Z,3.90
2018-07-27T02:31:34.934Z,3.70
2018-07-27T02:32:34.953Z,3.60
2018-07-27T02:33:34.978Z,4.00
2018-07-27T02:34:34.994Z,3.50
2018-07-27T02:35:35.013Z,3.60
2018-07-27T02:36:35.034Z,3.90
2018-07-27T02:37:35.063Z,3.80
2018-07-27T02:38:35.074Z,3.60
2018-07-27T02:39:35.107Z,3.70
2018-07-27T02:40:35.119Z,3.90
2018-07-27T02:41:35.133Z,3.90
2018-07-27T02:42:35.161Z,3.60
2018-07-27T02:43:35.184Z,3.80
2018-07-27T02:44:35.206Z,3.90
2018-07-27T02:45:35.227Z,3.70
2018-07-27T02:46:35.249Z,3.60
2018-07-27T02:47:35.274Z,3.80
2018-07-27T02:48:35.296Z,3.60
2018-07-27T02:49:35.316Z,4.10
2018-07-27T02:50:35.342Z,3.80
2018-07-27T02:51:35.351Z,4.00
2018-07-27T02:52:35.382Z,3.80
2018-07-27T02:53:35.400Z,3.50
2018-07-27T02:54:35.428Z,3.80
2018-07-27T02:55:35.448Z,3.50
2018-07-27T02:56:35.468Z,4.00
2018-07-27T02:57:35.486Z,3.90
2018-07-27T02:58:35.507Z,3.80
2018-07-27T02:59:35.527Z,3.90
2018-07-27T03:00:35.554Z,3.80
2018-07-27T03:01:35.569Z,4.10
2018-07-27T03:02:35.590Z,3.90
2018-07-27T03:03:35.618Z,4.00
2018-07-27T03:04:35.629Z,4.20
2018-07-27T03:05:35.665Z,3.80
2018-07-27T03:06:35.674Z,3.90
2018-07-27T03:07:35.765Z,3.90
2018-07-27T03:08:35.748Z,4.00
2018-07-27T03:09:35.831Z,4.00
2018-07-27T03:10:35.760Z,3.60
2018-07-27T03:11:35.786Z,4.20
2018-07-27T03:12:35.803Z,4.20
2018-07-27T03:13:35.837Z,3.80
2018-07-27T03:14:35.854Z,4.20
2018-07-27T03:15:35.881Z,4.10
2018-07-27T03:16:35.895Z,3.80
2018-07-27T03:17:35.915Z,4.10
2018-07-27T03:18:35.937Z,4.20
2018-07-27T03:19:35.963Z,3.80
2018-07-27T03:20:35.980Z,4.00
2018-07-27T03:21:36.004Z,3.90
2018-07-27T03:22:36.031Z,4.00
2018-07-27T03:23:36.037Z,3.90
2018-07-27T03:24:36.089Z,4.10
2018-07-27T03:25:36.082Z,4.10
2018-07-27T03:26:36.099Z,3.70
2018-07-27T03:27:36.123Z,3.70
2018-07-27T03:28:36.140Z,3.90
2018-07-27T03:29:36.163Z,3.90
2018-07-27T03:30:36.184Z,3.70
2018-07-27T03:31:36.213Z,4.00
2018-07-27T03:32:36.239Z,4.20
2018-07-27T03:33:36.308Z,4.00
2018-07-27T03:34:36.275Z,4.40
2018-07-27T03:35:36.316Z,4.00
2018-07-27T03:36:36.316Z,4.20
2018-07-27T03:37:36.331Z,3.90
2018-07-27T03:38:36.372Z,4.30
2018-07-27T03:39:36.389Z,4.30
2018-07-27T03:40:36.403Z,3.80
2018-07-27T03:41:36.418Z,4.30
2018-07-27T03:42:36.457Z,4.20
2018-07-27T03:43:36.473Z,3.90
2018-07-27T03:44:36.485Z,4.00
2018-07-27T03:45:36.515Z,4.00
2018-07-27T03:46:36.534Z,4.30
2018-07-27T03:47:36.554Z,4.30
2018-07-27T03:48:36.567Z,4.00
2018-07-27T03:49:36.599Z,4.30
2018-07-27T03:50:36.625Z,4.10
2018-07-27T03:51:36.635Z,4.20
2018-07-27T03:52:36.667Z,4.10
2018-07-27T03:53:36.694Z,4.40
2018-07-27T03:54:36.711Z,4.30
2018-07-27T03:55:36.721Z,4.30
2018-07-27T03:56:36.742Z,4.10
2018-07-27T03:57:36.769Z,4.30
2018-07-27T03:58:36.789Z,3.80
2018-07-27T03:59:36.809Z,4.20
2018-07-27T04:00:36.847Z,4.10
2018-07-27T04:01:36.852Z,4.60
2018-07-27T04:02:36.875Z,3.90
2018-07-27T04:03:36.883Z,4.40
2018-07-27T04:04:36.914Z,4.20
2018-07-27T04:05:36.945Z,4.30
2018-07-27T04:06:36.948Z,4.40
2018-07-27T04:07:36.988Z,4.00
2018-07-27T04:08:37.063Z,4.50
2018-07-27T04:09:37.021Z,4.30
2018-07-27T04:10:37.039Z,4.10
2018-07-27T04:11:37.082Z,4.10
2018-07-27T04:12:37.994Z,4.20
2018-07-27T04:13:37.108Z,4.30
2018-07-27T04:14:37.136Z,4.20
2018-07-27T04:15:37.148Z,4.10
2018-07-27T04:16:37.169Z,4.30
2018-07-27T04:17:37.191Z,4.60
2018-07-27T04:18:37.214Z,4.40
2018-07-27T04:19:37.233Z,4.20
2018-07-27T04:20:37.254Z,4.30
2018-07-27T04:21:37.273Z,4.40
2018-07-27T04:22:37.297Z,4.40
2018-07-27T04:23:37.381Z,4.50
2018-07-27T04:24:37.423Z,4.30
2018-07-27T04:25:37.362Z,4.40
2018-07-27T04:26:37.466Z,4.30
2018-07-27T04:27:37.404Z,4.20
2018-07-27T04:28:37.425Z,4.10
2018-07-27T04:29:37.449Z,4.40
2018-07-27T04:30:37.463Z,4.60
2018-07-27T04:31:37.495Z,4.40
2018-07-27T04:32:37.522Z,4.60
2018-07-27T04:33:37.535Z,4.10
2018-07-27T04:34:37.701Z,4.50
2018-07-27T04:35:37.598Z,4.40
2018-07-27T04:36:37.609Z,4.80
2018-07-27T04:37:37.618Z,4.70
2018-07-27T04:38:37.644Z,4.50
2018-07-27T04:39:37.665Z,4.40
2018-07-27T04:40:37.680Z,4.20
2018-07-27T04:41:37.704Z,4.30
2018-07-27T04:42:37.724Z,4.50
2018-07-27T04:43:37.748Z,4.50
2018-07-27T04:44:37.773Z,4.50
2018-07-27T04:45:37.786Z,4.60
2018-07-27T04:46:37.815Z,4.40
2018-07-27T04:47:37.830Z,4.50
2018-07-27T04:48:37.852Z,4.60
2018-07-27T04:49:37.882Z,4.30
2018-07-27T04:50:37.894Z,4.30
2018-07-27T04:51:37.918Z,4.50
2018-07-27T04:52:37.941Z,4.20
2018-07-27T04:53:37.970Z,4.30
2018-07-27T04:54:37.982Z,4.80
2018-07-27T04:55:38.008Z,4.50
2018-07-27T04:56:38.144Z,4.30
2018-07-27T04:57:38.046Z,4.50
2018-07-27T04:58:38.067Z,4.60
2018-07-27T04:59:38.088Z,4.60
2018-07-27T05:00:38.114Z,4.40
2018-07-27T05:01:38.136Z,4.40
2018-07-27T05:02:38.151Z,4.40
2018-07-27T05:03:38.175Z,4.30
2018-07-27T05:04:38.232Z,4.70
2018-07-27T05:05:38.215Z,4.70
2018-07-27T05:06:38.228Z,4.50
2018-07-27T05:07:38.262Z,4.50
2018-07-27T05:08:38.280Z,4.60
2018-07-27T05:09:38.301Z,6.00
2018-07-27T05:10:38.325Z,5.50
2018-07-27T05:11:38.344Z,5.10
2018-07-27T05:12:38.365Z,5.20
2018-07-27T05:13:38.386Z,5.10
2018-07-27T05:14:38.400Z,5.10
2018-07-27T05:15:38.451Z,4.90
2018-07-27T05:16:38.451Z,4.70
2018-07-27T05:17:38.474Z,5.00
2018-07-27T05:18:38.495Z,5.30
2018-07-27T05:19:38.514Z,4.70
2018-07-27T05:20:38.563Z,5.20
2018-07-27T05:21:38.561Z,4.90
2018-07-27T05:22:38.577Z,5.00
2018-07-27T05:23:38.605Z,4.70
2018-07-27T05:24:38.666Z,5.50
2018-07-27T05:25:38.646Z,6.60
2018-07-27T05:26:38.657Z,6.00
2018-07-27T05:27:38.683Z,5.70
2018-07-27T05:28:38.703Z,6.00
2018-07-27T05:29:38.724Z,6.10
2018-07-27T05:30:38.735Z,5.50
2018-07-27T05:31:38.764Z,5.50
2018-07-27T05:32:38.786Z,6.10
2018-07-27T05:33:38.814Z,5.70
2018-07-27T05:34:38.825Z,5.70
2018-07-27T05:35:38.940Z,5.50
2018-07-27T05:36:38.871Z,6.00
2018-07-27T05:37:38.892Z,5.30
2018-07-27T05:38:38.926Z,5.70
2018-07-27T05:39:38.932Z,5.60
2018-07-27T05:40:38.957Z,5.70
2018-07-27T05:41:38.973Z,5.60
2018-07-27T05:42:39.007Z,5.70
2018-07-27T05:43:39.016Z,5.50
2018-07-27T05:44:39.037Z,5.50
2018-07-27T05:45:39.056Z,5.80
2018-07-27T05:46:39.081Z,5.70
2018-07-27T05:47:39.108Z,5.50
2018-07-27T05:48:39.145Z,5.70
2018-07-27T05:49:39.135Z,6.00
2018-07-27T05:50:39.166Z,5.50
2018-07-27T05:51:39.188Z,5.30
2018-07-27T05:52:39.254Z,5.80
2018-07-27T05:53:39.226Z,5.70
2018-07-27T05:54:39.251Z,5.70
2018-07-27T05:55:39.265Z,5.60
2018-07-27T05:56:39.290Z,5.40
2018-07-27T05:57:39.317Z,5.50
2018-07-27T05:58:39.339Z,5.60
2018-07-27T05:59:39.348Z,5.60
2018-07-27T06:00:39.383Z,5.50
2018-07-27T06:01:39.401Z,5.80
2018-07-27T06:02:39.463Z,5.70
2018-07-27T06:03:39.434Z,5.40
2018-07-27T06:04:39.464Z,5.50
2018-07-27T06:05:39.487Z,5.60
2018-07-27T06:06:39.541Z,5.50
2018-07-27T06:07:39.524Z,5.30
2018-07-27T06:08:39.550Z,5.80
2018-07-27T06:09:39.564Z,5.60
2018-07-27T06:10:39.584Z,5.70
2018-07-27T06:11:39.638Z,5.60
2018-07-27T06:12:39.641Z,5.20
2018-07-27T06:13:39.651Z,5.30
2018-07-27T06:14:39.672Z,5.70
2018-07-27T06:15:39.693Z,5.50
2018-07-27T06:16:39.714Z,5.60
2018-07-27T06:17:39.727Z,5.40
2018-07-27T06:18:39.769Z,5.90
2018-07-27T06:19:39.781Z,5.70
2018-07-27T06:20:39.789Z,5.60
2018-07-27T06:21:39.866Z,5.40
2018-07-27T06:22:39.840Z,5.40
2018-07-27T06:23:39.894Z,5.50
2018-07-27T06:24:39.886Z,5.60
2018-07-27T06:25:39.963Z,5.40
2018-07-27T06:26:40.009Z,5.70
2018-07-27T06:27:39.948Z,5.90
2018-07-27T06:28:39.966Z,5.50
2018-07-27T06:29:39.993Z,5.80
2018-07-27T06:30:40.006Z,5.40
2018-07-27T06:31:40.029Z,5.40
2018-07-27T06:32:40.058Z,5.40
2018-07-27T06:33:40.081Z,5.40
2018-07-27T06:34:40.101Z,5.70
2018-07-27T06:35:40.118Z,5.80
2018-07-27T06:36:40.143Z,5.70
2018-07-27T06:37:40.158Z,5.50
2018-07-27T06:38:40.188Z,5.50
2018-07-27T06:39:40.203Z,5.70
2018-07-27T06:40:40.231Z,6.20
2018-07-27T06:41:40.250Z,5.90
2018-07-27T06:42:40.266Z,5.70
2018-07-27T06:43:40.293Z,5.70
2018-07-27T06:44:40.313Z,5.80
2018-07-27T06:45:40.338Z,5.80
2018-07-27T06:46:40.356Z,5.80
2018-07-27T06:47:40.374Z,5.50
2018-07-27T06:48:40.403Z,5.80
2018-07-27T06:49:40.425Z,5.90
2018-07-27T06:50:40.433Z,5.80
2018-07-27T06:51:40.467Z,5.70
2018-07-27T06:52:40.488Z,5.90
2018-07-27T06:53:40.510Z,5.70
2018-07-27T06:54:40.524Z,5.90
2018-07-27T06:55:40.562Z,5.80
2018-07-27T06:56:40.571Z,5.90
2018-07-27T06:57:40.611Z,5.90
2018-07-27T06:58:40.612Z,5.80
2018-07-27T06:59:40.628Z,5.80
2018-07-27T07:00:40.654Z,5.90
2018-07-27T07:01:40.676Z,5.80
2018-07-27T07:02:40.706Z,5.80
2018-07-27T07:03:40.721Z,5.80
2018-07-27T07:04:40.740Z,6.00
2018-07-27T07:05:40.762Z,5.80
2018-07-27T07:06:40.789Z,6.10
2018-07-27T07:07:40.807Z,6.10
2018-07-27T07:08:40.824Z,6.10
2018-07-27T07:09:40.848Z,5.40
2018-07-27T07:10:40.874Z,5.70
2018-07-27T07:11:40.882Z,6.10
2018-07-27T07:12:40.927Z,6.00
2018-07-27T07:13:40.936Z,6.00
2018-07-27T07:14:40.954Z,5.80
2018-07-27T07:15:40.977Z,6.20
2018-07-27T07:16:40.994Z,5.80
2018-07-27T07:17:41.025Z,5.80
2018-07-27T07:18:41.046Z,6.40
2018-07-27T07:19:41.075Z,6.40
2018-07-27T07:20:41.082Z,6.30
2018-07-27T07:21:41.101Z,6.10
2018-07-27T07:22:41.124Z,6.30
2018-07-27T07:23:41.145Z,6.40
2018-07-27T07:24:41.171Z,6.20
2018-07-27T07:25:41.226Z,6.10
2018-07-27T07:26:41.205Z,6.10
2018-07-27T07:27:41.230Z,5.90
2018-07-27T07:28:41.279Z,5.70
2018-07-27T07:29:41.272Z,6.40
2018-07-27T07:30:41.301Z,6.10
2018-07-27T07:31:41.321Z,6.60
2018-07-27T07:32:41.343Z,6.20
2018-07-27T07:33:41.365Z,6.40
2018-07-27T07:34:41.386Z,6.10
2018-07-27T07:35:41.398Z,6.40
2018-07-27T07:36:41.426Z,6.10
2018-07-27T07:37:41.448Z,6.10
2018-07-27T07:38:41.480Z,6.30
2018-07-27T07:39:41.498Z,6.00
2018-07-27T07:40:41.531Z,6.30
2018-07-27T07:41:41.530Z,6.30
2018-07-27T07:42:41.581Z,6.20
2018-07-27T07:43:41.606Z,6.00
2018-07-27T07:44:41.599Z,6.40
2018-07-27T07:45:41.628Z,6.40
2018-07-27T07:46:41.648Z,6.60
2018-07-27T07:47:41.716Z,6.40
2018-07-27T07:48:43.068Z,6.40
2018-07-27T07:49:41.707Z,6.50
2018-07-27T07:50:41.728Z,6.50
2018-07-27T07:51:41.746Z,6.50
2018-07-27T07:52:41.768Z,6.90
2018-07-27T07:53:41.785Z,6.60
2018-07-27T07:54:41.834Z,6.30
2018-07-27T07:55:41.858Z,6.60
2018-07-27T07:56:41.850Z,6.20
2018-07-27T07:57:41.879Z,6.60
2018-07-27T07:58:41.912Z,6.60
2018-07-27T07:59:41.917Z,6.40
2018-07-27T08:00:41.933Z,6.40
2018-07-27T08:01:41.967Z,6.70
2018-07-27T08:02:41.992Z,6.50
2018-07-27T08:03:42.008Z,6.40
2018-07-27T08:04:42.030Z,6.60
2018-07-27T08:05:42.124Z,6.40
2018-07-27T08:06:42.094Z,6.40
2018-07-27T08:07:42.095Z,6.80
2018-07-27T08:08:42.127Z,7.10
2018-07-27T08:09:42.147Z,7.50
2018-07-27T08:10:42.155Z,7.10
2018-07-27T08:11:42.174Z,7.70
2018-07-27T08:12:42.203Z,7.10
2018-07-27T08:13:42.219Z,6.30
2018-07-27T08:14:42.241Z,7.30
2018-07-27T08:15:42.284Z,6.20
2018-07-27T08:16:42.279Z,6.30
2018-07-27T08:17:42.305Z,6.40
2018-07-27T08:18:42.325Z,6.20
2018-07-27T08:19:42.354Z,6.60
2018-07-27T08:20:42.366Z,6.50
2018-07-27T08:21:42.388Z,6.10
2018-07-27T08:22:42.419Z,6.40
2018-07-27T08:23:42.443Z,6.10
2018-07-27T08:24:42.457Z,6.20
2018-07-27T08:25:42.478Z,6.10
2018-07-27T08:26:42.500Z,6.10
2018-07-27T08:27:42.516Z,6.40
2018-07-27T08:28:42.537Z,6.20
2018-07-27T08:29:42.557Z,6.40
2018-07-27T08:30:42.580Z,6.40
2018-07-27T08:31:42.605Z,6.10
2018-07-27T08:32:42.621Z,6.00
2018-07-27T08:33:42.667Z,6.50
2018-07-27T08:34:42.672Z,6.50
2018-07-27T08:35:42.692Z,6.00
2018-07-27T08:36:42.720Z,6.30
2018-07-27T08:37:42.737Z,6.40
2018-07-27T08:38:42.760Z,6.20
2018-07-27T08:39:42.812Z,6.30
2018-07-27T08:40:42.803Z,6.20
2018-07-27T08:41:42.815Z,6.40
2018-07-27T08:42:42.843Z,6.30
2018-07-27T08:43:42.863Z,6.10
2018-07-27T08:44:42.885Z,6.30
2018-07-27T08:45:42.929Z,6.40
2018-07-27T08:46:43.362Z,6.50
2018-07-27T08:47:42.964Z,6.20
2018-07-27T08:48:42.974Z,6.40
2018-07-27T08:49:42.993Z,6.60
2018-07-27T08:50:43.020Z,6.60
2018-07-27T08:51:43.032Z,6.70
2018-07-27T08:52:43.054Z,6.10
2018-07-27T08:53:43.076Z,6.40
2018-07-27T08:54:43.101Z,6.20
2018-07-27T08:55:43.126Z,6.40
2018-07-27T08:56:43.141Z,6.10
2018-07-27T08:57:43.177Z,6.30
2018-07-27T08:58:43.188Z,6.40
2018-07-27T08:59:43.214Z,6.40
2018-07-27T09:00:43.226Z,6.40
2018-07-27T09:01:43.247Z,6.20
2018-07-27T09:02:43.264Z,6.20
2018-07-27T09:03:43.291Z,6.20
2018-07-27T09:04:43.311Z,6.20
2018-07-27T09:05:43.338Z,6.10
2018-07-27T09:06:43.362Z,6.70
2018-07-27T09:07:43.378Z,6.20
2018-07-27T09:08:43.401Z,6.30
2018-07-27T09:09:43.422Z,6.40
2018-07-27T09:10:43.442Z,6.10
2018-07-27T09:11:43.502Z,6.30
2018-07-27T09:12:43.486Z,6.30
2018-07-27T09:13:43.510Z,6.40
2018-07-27T09:14:43.527Z,6.10
2018-07-27T09:15:43.551Z,6.40
2018-07-27T09:16:43.572Z,6.50
2018-07-27T09:17:43.597Z,6.50
2018-07-27T09:18:43.612Z,6.40
2018-07-27T09:19:43.631Z,6.60
2018-07-27T09:20:43.655Z,6.60
2018-07-27T09:21:43.678Z,6.50
2018-07-27T09:22:43.693Z,6.40
2018-07-27T09:23:43.724Z,6.70
2018-07-27T09:24:43.920Z,6.60
2018-07-27T09:25:43.766Z,6.40
2018-07-27T09:26:43.787Z,6.30
2018-07-27T09:27:43.810Z,6.50
2018-07-27T09:28:43.843Z,6.60
2018-07-27T09:29:43.853Z,6.30
2018-07-27T09:30:43.877Z,6.60
2018-07-27T09:31:43.893Z,6.30
2018-07-27T09:32:43.933Z,6.10
2018-07-27T09:33:43.940Z,6.40
2018-07-27T09:34:43.959Z,6.30
2018-07-27T09:35:43.978Z,6.50
2018-07-27T09:36:43.997Z,6.30
2018-07-27T09:37:44.025Z,6.80
2018-07-27T09:38:44.042Z,6.40
2018-07-27T09:39:44.066Z,6.60
2018-07-27T09:40:44.081Z,6.80
2018-07-27T09:41:44.182Z,6.70
2018-07-27T09:42:44.138Z,6.70
2018-07-27T09:43:44.153Z,6.70
2018-07-27T09:44:44.168Z,6.70
2018-07-27T09:45:44.192Z,6.80
2018-07-27T09:46:44.216Z,6.70
2018-07-27T09:47:44.232Z,6.90
2018-07-27T09:48:44.268Z,6.70
2018-07-27T09:49:44.278Z,6.70
2018-07-27T09:50:44.300Z,6.40
2018-07-27T09:51:44.394Z,6.40
2018-07-27T09:52:44.348Z,6.60
2018-07-27T09:53:44.377Z,6.80
2018-07-27T09:54:44.394Z,6.60
2018-07-27T09:55:44.411Z,6.60
2018-07-27T09:56:44.425Z,6.60
2018-07-27T09:57:44.477Z,6.40
2018-07-27T09:58:44.468Z,6.40
2018-07-27T09:59:44.493Z,6.30
2018-07-27T10:00:44.514Z,6.60
2018-07-27T10:01:44.541Z,6.40
2018-07-27T10:02:44.553Z,6.20
2018-07-27T10:03:44.579Z,6.40
2018-07-27T10:04:44.605Z,6.50
2018-07-27T10:05:44.625Z,6.50
2018-07-27T10:06:44.638Z,6.50
2018-07-27T10:07:44.684Z,6.50
2018-07-27T10:08:44.689Z,6.80
2018-07-27T10:09:44.715Z,6.60
2018-07-27T10:10:44.732Z,6.80
2018-07-27T10:11:44.752Z,6.10
2018-07-27T10:12:44.784Z,6.40
2018-07-27T10:13:44.795Z,6.60
2018-07-27T10:14:44.818Z,6.30
2018-07-27T10:15:44.839Z,6.60
2018-07-27T10:16:44.866Z,7.10
2018-07-27T10:17:44.890Z,6.60
2018-07-27T10:18:44.911Z,6.60
2018-07-27T10:19:44.919Z,6.70
2018-07-27T10:20:44.949Z,6.30
2018-07-27T10:21:44.966Z,6.50
2018-07-27T10:22:45.005Z,6.40
2018-07-27T10:23:45.005Z,6.60
2018-07-27T10:24:45.048Z,6.40
2018-07-27T10:25:45.052Z,6.40
2018-07-27T10:26:45.080Z,6.20
2018-07-27T10:27:45.095Z,6.60
2018-07-27T10:28:45.119Z,6.70
2018-07-27T10:29:45.127Z,6.70
2018-07-27T10:30:45.164Z,6.30
2018-07-27T10:31:45.180Z,6.30
2018-07-27T10:32:45.204Z,6.50
2018-07-27T10:33:45.238Z,6.60
2018-07-27T10:34:45.247Z,5.80
2018-07-27T10:35:45.262Z,6.30
2018-07-27T10:36:45.303Z,6.50
2018-07-27T10:37:45.315Z,6.50
2018-07-27T10:38:45.394Z,6.10
2018-07-27T10:39:45.349Z,7.30
2018-07-27T10:40:45.382Z,6.60
2018-07-27T10:41:45.397Z,6.40
2018-07-27T10:42:45.425Z,6.20
2018-07-27T10:43:45.443Z,7.20
2018-07-27T10:44:45.556Z,6.10
2018-07-27T10:45:45.485Z,6.30
2018-07-27T10:46:45.502Z,6.40
2018-07-27T10:47:45.524Z,6.60
2018-07-27T10:48:45.548Z,6.70
2018-07-27T10:49:45.567Z,6.40
2018-07-27T10:50:45.655Z,6.60
2018-07-27T10:51:45.611Z,6.30
2018-07-27T10:52:45.632Z,6.50
2018-07-27T10:53:45.656Z,6.50
2018-07-27T10:54:45.696Z,6.40
2018-07-27T10:55:45.697Z,6.70
2018-07-27T10:56:45.719Z,6.20
2018-07-27T10:57:45.732Z,6.30
2018-07-27T10:58:45.760Z,6.30
2018-07-27T10:59:45.783Z,6.00
2018-07-27T11:00:45.807Z,6.00
2018-07-27T11:01:45.824Z,6.40
2018-07-27T11:02:45.852Z,6.50
2018-07-27T11:03:45.869Z,6.20
2018-07-27T11:04:45.896Z,6.60
2018-07-27T11:05:45.915Z,6.60
2018-07-27T11:06:45.934Z,6.00
2018-07-27T11:07:45.958Z,6.40
2018-07-27T11:08:45.983Z,6.50
2018-07-27T11:09:46.068Z,6.40
2018-07-27T11:10:46.019Z,6.50
2018-07-27T11:11:46.046Z,6.80
2018-07-27T11:12:46.090Z,6.50
2018-07-27T11:13:46.090Z,6.40
2018-07-27T11:14:46.110Z,6.40
2018-07-27T11:15:46.130Z,6.10
2018-07-27T11:16:46.151Z,6.70
2018-07-27T11:17:46.203Z,6.20
2018-07-27T11:18:46.204Z,6.30
2018-07-27T11:19:46.216Z,6.50
2018-07-27T11:20:46.234Z,6.30
2018-07-27T11:21:46.262Z,6.70
2018-07-27T11:22:46.282Z,6.70
2018-07-27T11:23:46.296Z,6.40
2018-07-27T11:24:46.326Z,6.40
2018-07-27T11:25:46.355Z,6.00
2018-07-27T11:26:46.368Z,6.50
2018-07-27T11:27:46.385Z,6.90
2018-07-27T11:28:46.405Z,6.30
2018-07-27T11:29:46.437Z,6.10
2018-07-27T11:30:46.451Z,6.50
2018-07-27T11:31:46.471Z,6.50
2018-07-27T11:32:46.494Z,6.20
2018-07-27T11:33:46.519Z,6.20
2018-07-27T11:34:46.542Z,6.70
2018-07-27T11:35:46.631Z,6.10
2018-07-27T11:36:46.586Z,6.30
2018-07-27T11:37:46.603Z,6.60
2018-07-27T11:38:46.637Z,6.50
2018-07-27T11:39:46.642Z,6.50
2018-07-27T11:40:46.665Z,6.60
2018-07-27T11:41:46.692Z,6.40
2018-07-27T11:42:46.708Z,5.90
2018-07-27T11:43:46.731Z,6.60
2018-07-27T11:44:46.752Z,6.50
2018-07-27T11:45:46.771Z,6.50
2018-07-27T11:46:46.796Z,6.80
2018-07-27T11:47:46.820Z,6.20
2018-07-27T11:48:46.845Z,6.50
2018-07-27T11:49:46.862Z,6.40
2018-07-27T11:50:46.892Z,6.10
2018-07-27T11:51:46.902Z,6.10
2018-07-27T11:52:46.922Z,6.20
2018-07-27T11:53:46.946Z,5.90
2018-07-27T11:54:46.973Z,6.20
2018-07-27T11:55:46.996Z,6.40
2018-07-27T11:56:47.014Z,6.10
2018-07-27T11:57:47.042Z,6.70
2018-07-27T11:58:47.057Z,6.70
2018-07-27T11:59:47.067Z,6.10
2018-07-27T12:00:47.101Z,6.20
2018-07-27T12:01:47.136Z,6.30
2018-07-27T12:02:47.141Z,6.00
2018-07-27T12:03:47.230Z,6.10
2018-07-27T12:04:47.184Z,6.60
2018-07-27T12:05:47.211Z,6.50
2018-07-27T12:06:47.228Z,6.40
2018-07-27T12:07:47.245Z,6.40
2018-07-27T12:08:47.275Z,6.30
2018-07-27T12:09:47.292Z,5.80
2018-07-27T12:10:47.312Z,6.50
2018-07-27T12:11:47.340Z,6.10
2018-07-27T12:12:47.359Z,6.70
2018-07-27T12:13:47.447Z,6.30
2018-07-27T12:14:47.522Z,5.90
2018-07-27T12:15:47.422Z,6.20
2018-07-27T12:16:47.440Z,6.00
2018-07-27T12:17:47.466Z,5.80
2018-07-27T12:18:47.493Z,6.40
2018-07-27T12:19:47.537Z,6.30
2018-07-27T12:20:47.650Z,6.00
2018-07-27T12:21:47.777Z,5.90
2018-07-27T12:22:47.569Z,6.30
2018-07-27T12:23:47.595Z,6.00
2018-07-27T12:24:47.609Z,6.10
2018-07-27T12:25:47.637Z,5.90
2018-07-27T12:26:47.658Z,6.10
2018-07-27T12:27:47.678Z,5.80
2018-07-27T12:28:47.696Z,5.80
2018-07-27T12:29:47.724Z,6.10
2018-07-27T12:30:47.750Z,5.80
2018-07-27T12:31:47.765Z,6.10
2018-07-27T12:32:47.888Z,6.00
2018-07-27T12:33:47.808Z,6.20
2018-07-27T12:34:47.826Z,5.90
2018-07-27T12:35:47.857Z,6.00
2018-07-27T12:36:47.878Z,6.20
2018-07-27T12:37:47.898Z,6.00
2018-07-27T12:38:47.920Z,6.40
2018-07-27T12:39:47.939Z,6.20
2018-07-27T12:40:47.963Z,6.30
2018-07-27T12:41:47.992Z,5.90
2018-07-27T12:42:48.007Z,6.60
2018-07-27T12:43:48.027Z,6.10
2018-07-27T12:44:48.048Z,6.20
2018-07-27T12:45:48.068Z,5.90
2018-07-27T12:46:48.089Z,6.50
2018-07-27T12:47:48.109Z,6.30
2018-07-27T12:48:48.135Z,6.10
2018-07-27T12:49:48.155Z,6.00
2018-07-27T12:50:48.170Z,5.80
2018-07-27T12:51:48.198Z,5.80
2018-07-27T12:52:48.217Z,6.00
2018-07-27T12:53:48.242Z,5.90
2018-07-27T12:54:48.262Z,5.90
2018-07-27T12:55:48.292Z,6.10
2018-07-27T12:56:48.307Z,5.80
2018-07-27T12:57:48.335Z,5.80
2018-07-27T12:58:48.349Z,5.80
2018-07-27T12:59:48.370Z,6.10
2018-07-27T13:00:48.390Z,5.90
2018-07-27T13:01:48.429Z,6.20
2018-07-27T13:02:48.428Z,6.10
2018-07-27T13:03:48.451Z,5.70
2018-07-27T13:04:48.479Z,6.30
2018-07-27T13:05:48.500Z,5.90
2018-07-27T13:06:48.524Z,5.90
2018-07-27T13:07:48.542Z,6.20
2018-07-27T13:08:48.574Z,5.80
2018-07-27T13:09:48.589Z,6.00
2018-07-27T13:10:48.628Z,6.10
2018-07-27T13:11:48.626Z,5.90
2018-07-27T13:12:48.652Z,6.40
2018-07-27T13:13:48.670Z,6.00
2018-07-27T13:14:48.710Z,6.00
2018-07-27T13:15:48.714Z,6.00
2018-07-27T13:16:48.747Z,6.00
2018-07-27T13:17:48.755Z,5.90
2018-07-27T13:18:48.775Z,6.00